Etusivu
METAR-TAF:

METAR-TAF

Lentoasemat :

Gatwickin kansainvälinen lentoasema

Lontoo-Gatwick, Englanti

Leveyspiiri: 51-09N, Pituuspiiri: 000-11W, korkeus merenpinnasta: 62 m

Tämänhetkinen sää

Tämä raportti tehtiin 33 minuuttia sitten, kello 03.20 UTC
Tuuli 2 kn idästä/koillisesta
Lämpötila 9°C
Kosteus 81%
Ilmanpaine 1025 hPa
Näkyvyys: 9000 m

METAR: EGKK 100320Z 07002KT 9000 NSC 09/06 Q1025

Aika: 04:53 (03:53 UTC)

Sääennuste

Tämä raportti tehtiin 4 tuntia ja 57 minuuttia sitten, kello 22.56 UTC
Ennuste voimassa 10. päivästä klo 00 UTC - 11. päivään klo 06 UTC
Tuuli 8 kn idästä
Näkyvyys 10 km tai enemmän
ei pilviä alle 1500 m:ssä eikä cumulonimbus-pilviä
Todennäköisyys 40% :
Ajoittain
10. päivästä klo 00 UTC - 10. päivään klo 10 UTC
Näkyvyys: 7000 m
Ajoittain
11. päivästä klo 00 UTC - 11. päivään klo 06 UTC
Näkyvyys: 6000 m

TAF: EGKK 092256Z 1000/1106 10008KT CAVOK PROB40 TEMPO 1000/1010 7000 TEMPO 1100/1106 6000

Säähavainnot ja -ennusteet yli 4000 lentoasemalta (METAR- ja TAF-raportit).

Käytössä olevat sääasemat on merkitty karttaan keltaisilla ja punaisilla pisteillä.

Aseta hiiri pisteen päälle nähdäksesi sääaseman nimen.

Klikkaa sitten nähdäksesi säähavainnot ja -ennusteet.

Kartan vaihtaminen: klikkaa mustalla rastilla varustettuja vihreitä pisteitä, niin voit zoomata sisään; viivalla varustettua vihreää pistettä, niin voit zoomata ulos tai vihreitä nuolia, niin pääset viereisille kartoille.


METAR-TAF: